Latest Weather Observations for PORTABLE RFSNSW53

IDN60801

Issued at 4:42 pm EST Monday 28 September 2020 (issued every 10 minutes, with the page automatically refreshed every 10 minutes)

About weather observations | Map of weather stations | Latest weather observations for NSW | Other Formats
Station Details ID: 250096 Name: PORTABLE RFSNSW53 Lat: -34.44 Lon: 146.90 Height: 205.0 m

Portable automatic weather stations (PAWS) are operated by other organisations, such as Fire and Emergency Services, and are included here by agreement. Portable stations may be deployed to a location for a short period and their location may be subject to change without notice. Wind observations from these stations are provided from heights of either three (3) or ten (10) metres above ground level (AGL).

Data from the previous 72 hours. | See also: Recent months for locations in New South Wales
Date/Time
EST
Temp
°C
App
Temp
°C
Dew
Point
°C
Rel
Hum
%
Delta-T
°C
Wind Press
QNH
hPa
Press
MSL
hPa
Rain since
9am
mm
Dir  Spd
km/h
Gust
km/h
Spd
kts
Gust
kts
28/04:30pm 19.0 17.1 4.9 39 6.9 SSW 4 7 2 4 - - 0.0
28/04:20pm 18.9 16.6 4.8 39 6.9 S 6 9 3 5 - - 0.0
28/04:10pm 19.1 17.2 4.8 39 7.0 NNE 4 6 2 3 - - 0.0
28/04:00pm 18.8 16.4 5.4 41 6.6 N 7 9 4 5 - - 0.0
28/03:50pm 18.9 16.4 4.0 37 7.1 N 6 6 3 3 - - 0.0
28/03:40pm 18.8 16.4 4.3 38 7.0 N 6 11 3 6 - - 0.0
28/03:30pm 19.0 16.6 5.4 41 6.7 N 7 9 4 5 - - 0.0
28/03:20pm 18.8 16.7 5.8 42 6.5 N 6 9 3 5 - - 0.0
28/03:10pm 18.7 16.0 5.6 42 6.5 N 9 11 5 6 - - 0.0
28/03:00pm 19.1 16.7 4.5 38 7.1 NNW 6 7 3 4 - - 0.0
28/02:50pm 18.9 16.7 5.4 41 6.7 N 6 11 3 6 - - 0.0
28/02:40pm 18.7 15.7 4.0 37 7.0 WNW 9 11 5 6 - - 0.0
28/02:30pm 18.9 16.3 3.4 35 7.3 WSW 6 7 3 4 - - 0.0
28/02:20pm 18.6 16.0 3.3 36 7.2 SE 6 7 3 4 - - 0.0
28/02:10pm 18.5 15.9 4.4 39 6.8 WSW 7 9 4 5 - - 0.0
28/02:00pm 18.5 15.9 4.3 39 6.8 W 7 11 4 6 - - 0.0
28/01:50pm 18.4 15.6 3.3 36 7.1 W 7 9 4 5 - - 0.0
28/01:40pm 18.3 16.2 4.0 38 6.8 NNE 4 7 2 4 - - 0.0
28/01:30pm 18.0 15.4 4.3 40 6.6 N 7 11 4 6 - - 0.0
28/01:20pm 17.9 15.6 5.5 44 6.1 W 7 11 4 6 - - 0.0
28/01:10pm 17.4 14.7 2.9 38 6.7 N 6 9 3 5 - - 0.0
28/01:00pm 17.4 14.9 4.6 42 6.1 W 7 9 4 5 - - 0.0
28/12:50pm 17.3 14.7 4.1 41 6.3 N 7 9 4 5 - - 0.0
28/12:40pm 17.0 14.4 3.2 39 6.4 SW 6 9 3 5 - - 0.0
28/12:30pm 17.2 13.5 2.5 37 6.7 WNW 11 13 6 7 - - 0.0
28/12:20pm 17.2 14.7 3.7 40 6.4 NNW 6 9 3 5 - - 0.0
28/12:10pm 16.6 13.9 3.5 41 6.1 N 7 15 4 8 - - 0.0
28/12:00pm 16.5 13.9 4.3 44 5.8 NNW 7 13 4 7 - - 0.0
28/11:50am 16.4 13.7 2.8 40 6.2 NW 6 9 3 5 - - 0.0
28/11:40am 16.3 13.4 2.8 40 6.2 W 7 11 4 6 - - 0.0
28/11:30am 16.4 13.9 3.5 42 6.0 NW 6 11 3 6 - - 0.0
28/11:20am 15.9 13.1 3.4 43 5.8 W 7 13 4 7 - - 0.0
28/11:10am 16.0 13.4 4.0 44 5.6 WSW 7 13 4 7 - - 0.0
28/11:00am 15.7 12.6 3.6 44 5.6 SW 9 11 5 6 - - 0.0
28/10:50am 15.7 13.0 3.7 44 5.6 W 7 13 4 7 - - 0.0
28/10:40am 16.1 13.5 3.2 42 6.0 W 6 11 3 6 - - 0.0
28/10:30am 15.4 12.6 3.0 43 5.7 NNW 7 9 4 5 - - 0.0
28/10:20am 15.3 12.7 4.0 47 5.3 NNW 7 11 4 6 - - 0.0
28/10:10am 15.3 12.4 1.5 39 6.1 SSW 6 9 3 5 - - 0.0
28/10:00am 14.9 11.9 2.2 42 5.7 WSW 7 11 4 6 - - 0.0
28/09:50am 14.8 12.3 3.5 46 5.2 SW 6 9 3 5 - - 0.0
28/09:40am 14.7 12.1 3.0 45 5.3 NW 6 7 3 4 - - 0.0
28/09:30am 14.4 12.5 4.8 52 4.5 NNW 4 6 2 3 - - 0.0
28/09:20am 14.1 11.5 3.3 48 4.9 NNW 6 7 3 4 - - 0.0
28/09:10am 13.6 11.8 5.4 57 3.9 N 4 6 2 3 - - 0.0
28/09:00am 13.0 10.9 5.8 61 3.4 N 6 6 3 3 - - 0.0
28/08:50am 12.5 10.6 6.9 68 2.7 N 6 7 3 4 - - 0.0
28/08:40am 12.2 10.7 6.6 68 2.7 NNE 4 6 2 3 - - 0.0
28/08:30am 11.6 9.8 5.6 66 2.8 N 4 4 2 2 - - 0.0
28/08:20am 10.7 9.1 6.3 74 2.1 N 4 4 2 2 - - 0.0
28/08:10am 10.0 8.5 6.6 79 1.6 N 4 4 2 2 - - 0.0
28/08:00am 9.3 7.9 7.1 86 1.0 NNW 4 4 2 2 - - 0.0
28/07:50am 8.4 6.8 6.3 87 1.0 N 4 4 2 2 - - 0.0
28/07:40am 7.3 6.0 5.9 91 0.6 N 2 4 1 2 - - 0.0
28/07:30am 6.2 4.7 4.9 91 0.6 N 2 2 1 1 - - 0.0
28/07:20am 5.2 3.5 3.9 91 0.6 NNW 2 4 1 2 - - 0.0
28/07:10am 4.6 2.8 3.4 92 0.5 N 2 2 1 1 - - 0.0
28/07:00am 4.1 2.3 3.3 94 0.3 NE 2 2 1 1 - - 0.0
28/06:50am 2.7 0.6 2.0 95 0.3 N 2 2 1 1 - - 0.0
28/06:40am 1.6 -0.6 1.0 96 0.2 ENE 2 2 1 1 - - 0.0
28/06:30am 0.3 -2.1 -0.2 96 0.2 SSE 2 2 1 1 - - 0.0
28/06:20am -0.5 -3.0 -1.0 96 0.2 SSE 2 2 1 1 - - 0.0
28/06:10am -1.2 -3.8 -1.7 96 0.1 NNW 2 2 1 1 - - 0.0
28/06:00am -1.5 -3.8 -2.0 96 0.1 CALM 0 2 0 1 - - 0.0
28/05:50am -1.5 -4.2 -2.1 96 0.1 SSW 2 2 1 1 - - 0.0
28/05:40am -1.5 -4.1 -2.0 96 0.1 WNW 2 2 1 1 - - 0.0
28/05:30am -1.4 -4.0 -1.9 96 0.1 NW 2 4 1 2 - - 0.0
28/05:20am -1.2 -3.8 -1.7 96 0.1 E 2 2 1 1 - - 0.0
28/05:10am -1.2 -3.8 -1.7 96 0.1 E 2 4 1 2 - - 0.0
28/05:00am -1.2 -3.8 -1.7 96 0.1 E 2 4 1 2 - - 0.0
28/04:50am -1.1 -3.7 -1.6 96 0.1 - 2 4 1 2 - - 0.0
28/04:40am -0.9 -3.8 -1.4 96 0.1 ENE 4 4 2 2 - - 0.0
28/04:30am -0.9 -3.5 -1.4 96 0.1 ENE 2 2 1 1 - - 0.0
28/04:20am -0.9 -3.8 -1.4 96 0.1 N 4 4 2 2 - - 0.0
28/04:10am -0.8 -3.7 -1.4 96 0.2 NNE 4 4 2 2 - - 0.0
28/04:00am -0.8 -3.7 -1.3 96 0.1 NE 4 4 2 2 - - 0.0
28/03:50am -0.8 -3.3 -1.3 96 0.1 NNE 2 4 1 2 - - 0.0
28/03:40am -0.9 -3.8 -1.4 96 0.1 N 4 4 2 2 - - 0.0
28/03:30am -0.8 -3.7 -1.3 96 0.1 N 4 6 2 3 - - 0.0
28/03:20am -0.8 -3.4 -1.4 96 0.2 NW 2 4 1 2 - - 0.0
28/03:10am -0.5 -3.0 -1.1 96 0.2 N 2 2 1 1 - - 0.0
28/03:00am -0.6 -3.1 -1.1 96 0.1 NE 2 4 1 2 - - 0.0
28/02:50am -0.7 -3.2 -1.2 96 0.1 ESE 2 2 1 1 - - 0.0
28/02:40am -0.5 -3.0 -1.0 96 0.2 SE 2 2 1 1 - - 0.0
28/02:30am -0.4 -2.5 -0.9 96 0.2 CALM 0 2 0 1 - - 0.0
28/02:20am -0.3 -2.8 -0.8 96 0.2 E 2 2 1 1 - - 0.0
28/02:10am -0.1 -2.5 -0.6 96 0.2 ENE 2 2 1 1 - - 0.0
28/02:00am 0.1 -2.3 -0.5 96 0.2 ENE 2 4 1 2 - - 0.0
28/01:50am 0.2 -2.2 -0.4 96 0.2 ENE 2 4 1 2 - - 0.0
28/01:40am 0.4 -2.0 -0.1 96 0.2 ENE 2 4 1 2 - - 0.0
28/01:30am 0.6 -1.7 0.1 96 0.2 NE 2 2 1 1 - - 0.0
28/01:20am 1.1 -1.2 0.6 96 0.2 ENE 2 2 1 1 - - 0.0
28/01:10am 1.5 -0.7 0.9 96 0.2 NE 2 4 1 2 - - 0.0
28/01:00am 1.5 -1.1 1.0 96 0.2 NE 4 4 2 2 - - 0.0
28/12:50am 1.0 -1.7 0.4 96 0.2 N 4 4 2 2 - - 0.0
28/12:40am 1.3 -1.3 0.7 96 0.2 N 4 4 2 2 - - 0.0
28/12:30am 1.6 -0.2 1.0 96 0.2 CALM 0 2 0 1 - - 0.0
28/12:20am 1.5 -0.7 0.9 96 0.2 N 2 2 1 1 - - 0.0
28/12:10am 1.6 -0.2 1.0 96 0.2 CALM 0 2 0 1 - - 0.0
28/12:00am 1.7 -0.5 1.1 96 0.2 NW 2 2 1 1 - - 0.0
 
Date/Time
EST
Temp
°C
App
Temp
°C
Dew
Point
°C
Rel
Hum
%
Delta-T
°C
Wind Press
QNH
hPa
Press
MSL
hPa
Rain since
9am
mm
Dir  Spd
km/h
Gust
km/h
Spd
kts
Gust
kts
27/11:50pm 1.8 -0.4 1.2 96 0.2 NW 2 4 1 2 - - 0.0
27/11:40pm 1.8 -0.4 1.2 96 0.2 NNW 2 4 1 2 - - 0.0
27/11:30pm 1.8 -0.4 1.2 96 0.2 NNW 2 2 1 1 - - 0.0
27/11:20pm 2.0 -0.2 1.3 95 0.3 W 2 2 1 1 - - 0.0
27/11:10pm 1.9 -0.3 1.2 95 0.3 SW 2 2 1 1 - - 0.0
27/11:00pm 2.1 0.0 1.4 95 0.3 SW 2 2 1 1 - - 0.0
27/10:50pm 2.3 0.2 1.6 95 0.3 S 2 2 1 1 - - 0.0
27/10:40pm 2.5 0.4 1.7 94 0.3 SSE 2 2 1 1 - - 0.0
27/10:30pm 2.6 0.5 1.6 93 0.4 S 2 4 1 2 - - 0.0
27/10:20pm 3.1 0.7 1.9 92 0.5 S 4 4 2 2 - - 0.0
27/10:10pm 3.3 0.9 2.4 94 0.4 S 4 4 2 2 - - 0.0
27/10:00pm 3.5 1.1 2.3 92 0.5 S 4 4 2 2 - - 0.0
27/09:50pm 3.7 1.0 2.6 92 0.4 SSE 6 6 3 3 - - 0.0
27/09:40pm 3.7 1.0 2.5 92 0.5 SSE 6 7 3 4 - - 0.0
27/09:30pm 3.7 0.8 2.6 92 0.4 SSE 7 7 4 4 - - 0.0
27/09:20pm 3.8 0.9 2.7 92 0.4 SSE 7 7 4 4 - - 0.0
27/09:10pm 3.9 1.1 2.9 93 0.4 SSE 7 7 4 4 - - 0.0
27/09:00pm 3.9 1.2 2.9 93 0.4 SSE 6 7 3 4 - - 0.0
27/08:50pm 4.2 1.6 3.0 92 0.5 SSE 6 6 3 3 - - 0.0
27/08:40pm 4.4 1.8 3.4 93 0.4 SSE 6 6 3 3 - - 0.0
27/08:30pm 4.5 1.9 3.4 93 0.5 SSE 6 6 3 3 - - 0.0
27/08:20pm 4.8 2.3 3.8 93 0.4 SSE 6 6 3 3 - - 0.0
27/08:10pm 4.8 2.7 3.9 94 0.4 SSE 4 6 2 3 - - 0.0
27/08:00pm 4.8 2.7 3.7 93 0.5 S 4 4 2 2 - - 0.0
27/07:50pm 5.5 3.5 4.3 92 0.5 SSE 4 4 2 2 - - 0.0
27/07:40pm 6.1 4.1 4.3 88 0.8 SSE 4 4 2 2 - - 0.0
27/07:30pm 6.7 4.8 5.0 89 0.8 SSE 4 4 2 2 - - 0.0
27/07:20pm 7.8 6.1 5.7 86 1.0 S 4 4 2 2 - - 0.0
27/07:10pm 8.3 6.6 5.7 84 1.2 S 4 6 2 3 - - 0.0
27/07:00pm 8.6 6.9 6.1 84 1.2 SE 4 6 2 3 - - 0.0
27/06:50pm 9.3 7.6 6.0 80 1.5 S 4 4 2 2 - - 0.0
27/06:40pm 9.5 7.9 6.3 80 1.5 SSE 4 4 2 2 - - 0.0
27/06:30pm 9.8 8.3 6.6 80 1.5 SSW 4 4 2 2 - - 0.0
27/06:20pm 10.2 8.8 7.3 82 1.4 SSW 4 6 2 3 - - 0.0
27/06:10pm 11.0 9.3 7.5 79 1.7 SSW 6 6 3 3 - - 0.0
27/06:00pm 11.8 10.4 7.3 74 2.2 S 4 4 2 2 - - 0.0
27/05:50pm 13.1 11.2 6.7 65 3.1 SSW 6 7 3 4 - - 0.0
27/05:40pm 13.9 12.0 6.9 62 3.4 SSW 6 7 3 4 - - 0.0
27/05:30pm 13.7 12.2 6.6 62 3.5 SSW 4 6 2 3 - - 0.0
27/05:20pm 12.7 11.4 7.5 70 2.6 SSW 4 6 2 3 - - 0.0
27/05:10pm 12.4 10.6 7.0 69 2.6 SSW 6 7 3 4 - - 0.0
27/05:00pm 12.7 11.0 7.4 70 2.6 SSW 6 7 3 4 - - 0.0
27/04:50pm 13.3 11.3 7.0 65 3.1 SSW 7 7 4 4 - - 0.0
27/04:40pm 14.0 11.3 5.7 57 4.0 SSW 9 11 5 6 - - 0.0
27/04:30pm 13.9 10.3 5.2 55 4.1 SW 13 15 7 8 - - 0.0
27/04:20pm 15.5 11.5 5.0 49 5.0 SW 15 22 8 12 - - 0.0
27/04:10pm 17.4 13.6 3.9 40 6.4 WSW 13 17 7 9 - - 0.0
27/04:00pm 17.3 13.5 4.0 41 6.3 WSW 13 15 7 8 - - 0.0
27/03:50pm 16.6 12.7 5.4 47 5.4 WSW 15 17 8 9 - - 0.0
27/03:40pm 16.8 12.9 5.4 47 5.5 WSW 15 19 8 10 - - 0.0
27/03:30pm 17.5 13.7 5.7 46 5.8 WSW 15 20 8 11 - - 0.0
27/03:20pm 16.2 13.0 4.9 47 5.4 SW 11 13 6 7 - - 0.0
27/03:10pm 15.2 11.7 5.5 52 4.7 SW 13 15 7 8 - - 0.0
27/03:00pm 15.9 11.7 5.5 50 5.0 SW 17 19 9 10 - - 0.0
27/02:50pm 17.2 12.9 5.4 45 5.7 SW 17 19 9 10 - - 0.0
27/02:40pm 16.1 13.4 5.6 49 5.1 WSW 9 15 5 8 - - 0.0
27/02:30pm 15.5 12.5 5.9 52 4.7 SW 11 13 6 7 - - 0.0
27/02:20pm 15.1 12.0 5.7 53 4.5 SW 11 13 6 7 - - 0.0
27/02:10pm 14.6 11.3 6.5 58 4.0 WSW 13 17 7 9 - - 0.0
27/02:00pm 15.7 11.5 5.6 51 4.9 W 17 19 9 10 - - 0.0
27/01:50pm 16.3 13.2 5.4 48 5.3 SW 11 15 6 8 - - 0.0
27/01:40pm 14.9 11.9 6.1 55 4.3 SSW 11 17 6 9 - - 0.0
27/01:30pm 15.1 11.4 6.1 55 4.4 SW 15 17 8 9 - - 0.0
27/01:20pm 16.2 12.1 6.1 51 5.0 SW 17 20 9 11 - - 0.0
27/01:10pm 16.6 13.1 5.5 48 5.4 SW 13 19 7 10 - - 0.0
27/01:00pm 15.0 11.4 4.9 51 4.8 W 13 19 7 10 - - 0.0
27/12:50pm 15.6 12.0 5.0 49 5.1 W 13 15 7 8 - - 0.0
27/12:40pm 16.5 12.7 6.0 50 5.1 WSW 15 19 8 10 - - 0.0
27/12:30pm 16.8 12.8 6.8 51 5.0 W 17 22 9 12 - - 0.0
27/12:20pm 16.2 11.9 5.4 48 5.2 W 17 20 9 11 - - 0.0
27/12:10pm 14.8 11.4 6.0 55 4.3 SW 13 19 7 10 - - 0.0
27/12:00pm 14.9 11.1 5.7 54 4.4 SW 15 17 8 9 - - 0.0
27/11:50am 14.2 10.9 6.5 60 3.8 SW 13 17 7 9 - - 0.0
27/11:40am 14.4 11.8 6.3 58 3.9 WSW 9 13 5 7 - - 0.0
27/11:30am 13.9 11.2 7.2 64 3.3 SW 11 15 6 8 - - 0.0
27/11:20am 14.3 11.0 6.4 59 3.8 WSW 13 15 7 8 - - 0.0
27/11:10am 15.1 11.0 6.0 54 4.4 WSW 17 19 9 10 - - 0.0
27/11:00am 14.0 10.4 6.9 62 3.5 SW 15 19 8 10 - - 0.0
27/10:50am 14.2 10.1 6.2 58 3.9 WSW 17 22 9 12 - - 0.0
27/10:40am 13.9 9.9 6.6 61 3.6 WSW 17 19 9 10 - - 0.0
27/10:30am 13.9 10.0 7.0 63 3.4 SW 17 20 9 11 - - 0.0
27/10:20am 13.8 10.5 6.3 60 3.6 SW 13 19 7 10 - - 0.0
27/10:10am 12.9 9.6 6.4 64 3.1 SW 13 19 7 10 - - 0.0
27/10:00am 12.8 9.6 7.0 68 2.8 WSW 13 17 7 9 - - 0.0
27/09:50am 12.5 9.2 6.4 66 2.9 WSW 13 19 7 10 - - 0.0
27/09:40am 12.4 8.8 6.6 68 2.8 SW 15 17 8 9 - - 0.0
27/09:30am 12.5 8.9 6.9 68 2.7 SW 15 17 8 9 - - 0.0
27/09:20am 12.4 8.8 6.9 69 2.7 SW 15 17 8 9 - - 0.0
27/09:10am 11.6 7.6 6.8 72 2.3 SW 17 20 9 11 - - 0.0
27/09:00am 11.4 7.4 6.8 73 2.2 SW 17 19 9 10 - - 0.0
27/08:50am 11.0 6.6 6.4 73 2.2 SW 19 22 10 12 - - 0.0
27/08:40am 10.8 7.6 7.0 77 1.8 SW 13 17 7 9 - - 0.0
27/08:30am 10.4 7.2 6.7 78 1.8 SW 13 15 7 8 - - 0.0
27/08:20am 9.9 6.6 6.4 79 1.6 SW 13 19 7 10 - - 0.0
27/08:10am 9.6 6.3 6.4 80 1.5 SW 13 17 7 9 - - 0.0
27/08:00am 9.3 6.9 6.8 84 1.2 SW 9 13 5 7 - - 0.0
27/07:50am 8.6 6.9 6.0 84 1.2 W 4 4 2 2 - - 0.0
27/07:40am 8.0 6.3 5.8 86 1.0 NW 4 4 2 2 - - 0.0
27/07:30am 7.3 5.5 5.2 86 0.9 N 4 4 2 2 - - 0.0
27/07:20am 6.8 4.8 4.4 85 1.1 NE 4 4 2 2 - - 0.0
27/07:10am 6.2 4.2 4.3 88 0.8 NNE 4 4 2 2 - - 0.0
27/07:00am 5.5 3.5 4.5 93 0.4 NE 4 4 2 2 - - 0.0
27/06:50am 4.2 2.0 3.5 95 0.3 NNE 4 4 2 2 - - 0.0
27/06:40am 2.9 0.5 2.3 96 0.2 NE 4 6 2 3 - - 0.0
27/06:30am 1.9 -1.0 1.2 95 0.3 NE 6 6 3 3 - - 0.0
27/06:20am 1.2 -1.5 0.6 96 0.2 NE 4 4 2 2 - - 0.0
27/06:10am 0.5 -2.2 0.0 96 0.2 NE 4 4 2 2 - - 0.0
27/06:00am 0.2 -3.0 -0.4 96 0.2 N 6 6 3 3 - - 0.0
27/05:50am 0.5 -2.3 -0.1 96 0.2 NE 4 4 2 2 - - 0.0
27/05:40am 0.6 -2.1 0.0 96 0.2 NNE 4 4 2 2 - - 0.0
27/05:30am 0.7 -1.6 0.1 96 0.2 NNE 2 4 1 2 - - 0.0
27/05:20am 0.9 -1.4 0.2 95 0.3 N 2 4 1 2 - - 0.0
27/05:10am 0.9 -1.8 0.2 95 0.3 N 4 4 2 2 - - 0.0
27/05:00am 1.0 -1.7 0.4 96 0.2 NE 4 4 2 2 - - 0.0
27/04:50am 1.0 -1.7 0.3 95 0.3 NNE 4 4 2 2 - - 0.0
27/04:40am 1.3 -1.3 0.7 96 0.2 NNW 4 6 2 3 - - 0.0
27/04:30am 1.3 -1.7 0.7 96 0.2 NW 6 6 3 3 - - 0.0
27/04:20am 1.5 -1.5 0.9 96 0.2 NW 6 6 3 3 - - 0.0
27/04:10am 1.4 -1.6 0.8 96 0.2 NW 6 6 3 3 - - 0.0
27/04:00am 1.0 -2.1 0.3 95 0.3 NNW 6 6 3 3 - - 0.0
27/03:50am 1.1 -1.6 0.4 95 0.3 NNW 4 6 2 3 - - 0.0
27/03:40am 1.3 -1.0 0.5 94 0.3 N 2 2 1 1 - - 0.0
27/03:30am 1.5 -1.2 0.6 94 0.3 N 4 4 2 2 - - 0.0
27/03:20am 2.1 -0.1 1.3 94 0.3 NNW 2 2 1 1 - - 0.0
27/03:10am 2.1 -0.4 1.4 95 0.3 NW 4 4 2 2 - - 0.0
27/03:00am 2.3 -0.2 1.6 95 0.3 NW 4 6 2 3 - - 0.0
27/02:50am 2.1 -0.4 1.3 94 0.3 WNW 4 4 2 2 - - 0.0
27/02:40am 2.0 -0.9 1.3 95 0.3 WNW 6 6 3 3 - - 0.0
27/02:30am 1.9 -1.1 1.1 94 0.3 NW 6 6 3 3 - - 0.0
27/02:20am 1.6 -1.0 0.7 94 0.3 NNW 4 6 2 3 - - 0.0
27/02:10am 1.7 -0.5 0.9 94 0.3 NW 2 2 1 1 - - 0.0
27/02:00am 2.0 -0.2 1.1 94 0.3 SW 2 2 1 1 - - 0.0
27/01:50am 2.2 0.0 1.3 94 0.3 S 2 4 1 2 - - 0.0
27/01:40am 2.3 0.1 1.2 92 0.4 WSW 2 4 1 2 - - 0.0
27/01:30am 2.6 0.1 1.6 93 0.4 W 4 4 2 2 - - 0.0
27/01:20am 2.6 0.1 1.6 93 0.4 W 4 6 2 3 - - 0.0
27/01:10am 2.8 -0.1 1.6 92 0.5 WNW 6 6 3 3 - - 0.0
27/01:00am 2.9 0.0 1.6 91 0.5 NW 6 6 3 3 - - 0.0
27/12:50am 3.0 0.1 1.7 91 0.5 NW 6 6 3 3 - - 0.0
27/12:40am 3.1 0.2 1.7 90 0.6 WNW 6 7 3 4 - - 0.0
27/12:30am 3.1 0.3 1.9 92 0.5 NW 6 7 3 4 - - 0.0
27/12:20am 2.6 0.1 1.6 93 0.4 NNW 4 4 2 2 - - 0.0
27/12:10am 2.5 0.0 1.5 93 0.4 NNE 4 6 2 3 - - 0.0
27/12:00am 2.7 0.9 1.5 92 0.5 CALM 0 2 0 1 - - 0.0
 
Date/Time
EST
Temp
°C
App
Temp
°C
Dew
Point
°C
Rel
Hum
%
Delta-T
°C
Wind Press
QNH
hPa
Press
MSL
hPa
Rain since
9am
mm
Dir  Spd
km/h
Gust
km/h
Spd
kts
Gust
kts
26/11:50pm 3.0 0.9 1.6 90 0.5 WSW 2 6 1 3 - - 0.0
26/11:40pm 3.2 0.4 1.8 90 0.6 WNW 6 7 3 4 - - 0.0
26/11:30pm 3.2 0.2 1.8 90 0.6 WNW 7 9 4 5 - - 0.0
26/11:20pm 3.4 0.6 1.9 90 0.6 WNW 6 7 3 4 - - 0.0
26/11:10pm 3.4 1.0 2.0 90 0.6 WNW 4 6 2 3 - - 0.0
26/11:00pm 3.3 0.5 1.9 90 0.6 W 6 6 3 3 - - 0.0
26/10:50pm 3.2 0.2 1.8 90 0.6 WNW 7 9 4 5 - - 0.0
26/10:40pm 3.3 0.9 1.9 90 0.6 NW 4 6 2 3 - - 0.0
26/10:30pm 3.3 0.8 1.8 90 0.6 NNW 4 6 2 3 - - 0.0
26/10:20pm 3.5 1.1 1.9 89 0.6 NNW 4 4 2 2 - - 0.0
26/10:10pm 3.4 0.6 2.0 90 0.6 NW 6 6 3 3 - - 0.0
26/10:00pm 3.3 0.3 1.9 90 0.6 NW 7 7 4 4 - - 0.0
26/09:50pm 3.2 0.4 2.0 92 0.5 NNW 6 6 3 3 - - 0.0
26/09:40pm 3.5 1.1 2.1 90 0.6 NNW 4 6 2 3 - - 0.0
26/09:30pm 4.0 1.2 2.1 87 0.8 W 6 6 3 3 - - 0.0
26/09:20pm 4.0 1.2 2.3 89 0.7 W 6 7 3 4 - - 0.0
26/09:10pm 4.5 1.6 2.6 87 0.8 W 7 9 4 5 - - 0.0
26/09:00pm 5.3 2.0 2.5 82 1.2 W 9 11 5 6 - - 0.0
26/08:50pm 5.5 1.8 2.2 79 1.4 W 11 11 6 6 - - 0.0
26/08:40pm 5.6 1.9 2.2 79 1.4 W 11 13 6 7 - - 0.0
26/08:30pm 5.2 1.4 2.0 80 1.3 W 11 13 6 7 - - 0.0
26/08:20pm 5.2 1.9 2.7 84 1.0 W 9 9 5 5 - - 0.0
26/08:10pm 5.8 2.2 2.8 81 1.3 W 11 13 6 7 - - 0.0
26/08:00pm 6.2 2.2 2.7 78 1.5 W 13 13 7 7 - - 0.0
26/07:50pm 6.1 2.8 2.5 78 1.5 W 9 13 5 7 - - 0.0
26/07:40pm 6.4 3.7 3.6 82 1.2 W 7 9 4 5 - - 0.0
26/07:30pm 7.1 4.0 3.4 77 1.6 W 9 11 5 6 - - 0.0
26/07:20pm 7.6 4.4 2.9 72 2.0 W 9 11 5 6 - - 0.0
26/07:10pm 8.1 4.6 3.3 72 2.1 W 11 11 6 6 - - 0.0
26/07:00pm 8.3 5.2 3.5 72 2.1 W 9 9 5 5 - - 0.0
26/06:50pm 8.3 5.2 3.8 73 2.0 W 9 9 5 5 - - 0.0
26/06:40pm 8.5 5.0 3.6 71 2.1 W 11 11 6 6 - - 0.0
26/06:30pm 9.2 5.6 3.0 65 2.7 W 11 13 6 7 - - 0.0
26/06:20pm 9.3 5.7 2.8 64 2.8 W 11 13 6 7 - - 0.0
26/06:10pm 9.9 5.9 3.0 62 3.0 W 13 15 7 8 - - 0.0
26/06:00pm 10.6 6.3 3.0 59 3.3 W 15 15 8 8 - - 0.0
26/05:50pm 11.5 7.5 3.0 56 3.8 W 13 17 7 9 - - 0.0
26/05:40pm 12.1 6.7 2.2 50 4.3 W 20 24 11 13 - - 0.0
26/05:30pm 12.7 6.8 1.4 46 4.9 W 22 26 12 14 - - 0.0
26/05:20pm 13.1 6.9 2.0 47 4.9 W 24 30 13 16 - - 0.0
26/05:10pm 13.5 8.3 2.3 46 5.0 W 19 22 10 12 - - 0.0
26/05:00pm 13.6 7.1 2.5 47 4.9 W 26 30 14 16 - - 0.0
26/04:50pm 13.7 6.7 2.1 45 5.1 W 28 32 15 17 - - 0.0
26/04:40pm 13.9 7.4 2.6 46 5.1 W 26 32 14 17 - - 0.0
26/04:30pm 13.9 7.2 1.7 43 5.4 WSW 26 30 14 16 - - 0.0
26/04:20pm 14.5 8.0 2.4 44 5.4 W 26 30 14 16 - - 0.0
26/04:10pm 13.3 6.7 1.9 46 5.0 WSW 26 32 14 17 - - 0.0
26/04:00pm 13.5 7.8 2.7 48 4.8 WSW 22 28 12 15 - - 0.0
26/03:50pm 13.4 7.3 2.9 49 4.7 W 24 26 13 14 - - 0.0
26/03:40pm 14.1 6.8 2.4 45 5.2 W 30 33 16 18 - - 0.0
26/03:30pm 15.0 8.5 2.8 44 5.5 W 26 33 14 18 - - 0.0
26/03:20pm 12.8 7.2 3.7 54 4.1 WSW 22 26 12 14 - - 0.0
26/03:10pm 13.2 7.7 4.0 53 4.2 WSW 22 28 12 15 - - 0.0
26/03:00pm 12.9 8.4 6.0 63 3.3 W 19 22 10 12 - - 0.0
26/02:50pm 13.0 7.7 4.8 57 3.8 W 22 28 12 15 - - 0.0
26/02:40pm 14.0 9.0 4.6 53 4.4 W 20 32 11 17 - - 0.0
26/02:30pm 13.6 8.0 5.4 57 3.9 W 24 30 13 16 - - 0.0
26/02:20pm 13.2 7.4 4.6 56 4.0 W 24 30 13 16 - - 0.0
26/02:10pm 13.9 8.7 5.5 57 4.0 W 22 28 12 15 - - 0.0
26/02:00pm 13.9 8.8 5.8 58 3.9 W 22 28 12 15 - - 0.0
26/01:50pm 13.4 8.7 6.0 61 3.5 WSW 20 28 11 15 - - 0.0
26/01:40pm 13.4 8.3 6.2 61 3.5 W 22 28 12 15 - - 0.0
26/01:30pm 12.6 8.5 6.0 64 3.1 WSW 17 19 9 10 - - 0.0
26/01:20pm 13.0 8.3 6.0 62 3.3 WSW 20 26 11 14 - - 0.0
26/01:10pm 12.8 7.7 5.9 63 3.3 WSW 22 24 12 13 - - 0.0
26/01:00pm 12.3 7.0 6.8 69 2.7 WSW 24 28 13 15 - - 0.0
26/12:50pm 11.9 6.9 6.6 70 2.5 WSW 22 28 12 15 - - 0.0
26/12:40pm 11.9 6.9 6.3 68 2.7 WSW 22 26 12 14 - - 0.0
26/12:30pm 11.8 7.1 6.2 68 2.7 SW 20 24 11 13 - - 0.0
26/12:20pm 10.9 5.6 6.6 75 2.0 SW 24 30 13 16 - - 0.0
26/12:10pm 11.5 6.5 6.6 72 2.3 SW 22 26 12 14 - - 0.0
26/12:00pm 10.7 5.7 6.6 76 2.0 WSW 22 26 12 14 - - 0.0
26/11:50am 11.3 6.3 6.5 72 2.3 WSW 22 26 12 14 - - 0.0
26/11:40am 10.1 4.4 6.7 79 1.6 WSW 26 32 14 17 - - 0.0
26/11:30am 10.7 6.1 6.5 75 2.0 W 20 22 11 12 - - 0.0
26/11:20am 10.2 5.2 6.5 78 1.7 WSW 22 26 12 14 - - 0.0
26/11:10am 9.9 4.5 6.4 79 1.6 W 24 28 13 15 - - 0.0
26/11:00am 9.6 4.7 6.7 82 1.4 W 22 24 12 13 - - 0.0
26/10:50am 8.9 4.2 6.0 82 1.3 W 20 26 11 14 - - 0.0
26/10:40am 8.3 3.3 6.6 89 0.8 W 22 28 12 15 - - 0.0
26/10:30am 8.3 3.3 6.3 87 0.9 W 22 26 12 14 - - 0.0
26/10:20am 7.8 2.7 6.1 89 0.8 W 22 26 12 14 - - 0.0
26/10:10am 7.8 2.3 6.0 88 0.8 W 24 28 13 15 - - 0.0
26/10:00am 7.9 2.7 5.5 85 1.1 W 22 26 12 14 - - 0.0
26/09:50am 8.3 3.1 5.4 82 1.3 W 22 26 12 14 - - 0.0
26/09:40am 8.4 3.2 5.6 82 1.3 W 22 26 12 14 - - 0.0
26/09:30am 8.1 2.9 5.4 83 1.2 W 22 28 12 15 - - 0.0
26/09:20am 7.9 3.0 5.1 82 1.3 W 20 24 11 13 - - 0.0
26/09:10am 7.7 2.8 5.1 83 1.2 W 20 26 11 14 - - 0.0
26/09:00am 7.7 2.7 4.8 82 1.3 W 20 24 11 13 - - 0.0
26/08:50am 7.6 2.8 4.9 83 1.2 W 19 19 10 10 - - 0.0
26/08:40am 7.2 1.8 4.7 84 1.1 W 22 26 12 14 - - 0.0
26/08:30am 7.2 2.3 5.0 86 1.0 W 20 26 11 14 - - 0.0
26/08:20am 7.1 1.7 4.6 84 1.1 W 22 26 12 14 - - 0.0
26/08:10am 6.7 1.9 4.5 86 1.0 W 19 22 10 12 - - 0.0
26/08:00am 6.4 1.3 4.3 86 0.9 W 20 28 11 15 - - 0.0
26/07:50am 6.0 1.0 4.7 91 0.6 W 20 24 11 13 - - 0.0
26/07:40am 5.8 1.4 4.9 94 0.4 W 17 20 9 11 - - 0.0
26/07:30am 5.5 1.5 4.7 95 0.3 W 15 19 8 10 - - 0.0
26/07:20am 5.1 1.0 4.4 95 0.3 W 15 17 8 9 - - 0.0
26/07:10am 4.9 0.8 4.2 95 0.3 WNW 15 19 8 10 - - 0.0
26/07:00am 4.8 0.7 4.1 95 0.3 W 15 15 8 8 - - 0.0
26/06:50am 4.4 0.6 3.8 96 0.3 W 13 15 7 8 - - 0.0
26/06:40am 4.0 0.9 3.4 96 0.2 WNW 9 11 5 6 - - 0.0
26/06:30am 3.7 0.5 3.0 95 0.3 WNW 9 9 5 5 - - 0.0
26/06:20am 3.8 1.0 3.2 96 0.2 NW 7 9 4 5 - - 0.0
26/06:10am 4.0 0.8 3.3 95 0.3 WNW 9 11 5 6 - - 0.0
26/06:00am 3.9 0.0 3.2 95 0.3 W 13 17 7 9 - - 0.0
26/05:50am 3.5 -0.5 2.9 96 0.2 W 13 15 7 8 - - 0.0
26/05:40am 2.9 -0.4 2.3 96 0.2 W 9 11 5 6 - - 0.0
26/05:30am 2.5 -0.9 1.9 96 0.2 WNW 9 11 5 6 - - 0.0
26/05:20am 2.3 -1.1 1.8 96 0.2 WNW 9 11 5 6 - - 0.0
26/05:10am 2.3 -1.1 1.7 96 0.2 WNW 9 11 5 6 - - 0.0
26/05:00am 2.3 -1.5 1.8 96 0.2 WNW 11 13 6 7 - - 0.0
26/04:50am 2.2 -1.6 1.7 96 0.2 WNW 11 13 6 7 - - 0.0
26/04:40am 2.2 -1.2 1.6 96 0.2 WNW 9 11 5 6 - - 0.0
26/04:30am 2.3 -1.5 1.7 96 0.2 WNW 11 13 6 7 - - 0.0
26/04:20am 2.3 -1.5 1.7 96 0.2 WNW 11 11 6 6 - - 0.0
26/04:10am 2.3 -1.9 1.7 96 0.2 NW 13 13 7 7 - - 0.0
26/04:00am 2.3 -1.9 1.7 96 0.2 WNW 13 15 7 8 - - 0.0
26/03:50am 2.3 -1.5 1.7 96 0.2 WNW 11 15 6 8 - - 0.0
26/03:40am 2.4 -2.2 1.8 96 0.2 WNW 15 17 8 9 - - 0.0
26/03:30am 2.2 -2.0 1.6 96 0.2 WNW 13 15 7 8 - - 0.0
26/03:20am 2.1 -2.1 1.5 96 0.2 WNW 13 13 7 7 - - 0.0
26/03:10am 2.1 -1.7 1.5 96 0.2 WNW 11 13 6 7 - - 0.0
26/03:00am 2.4 -1.0 1.7 95 0.3 WNW 9 9 5 5 - - 0.0
26/02:50am 2.6 -0.8 1.9 95 0.3 WNW 9 9 5 5 - - 0.0
26/02:40am 2.7 -0.7 2.0 95 0.3 WNW 9 11 5 6 - - 0.0
26/02:30am 2.8 -0.5 2.2 96 0.2 WNW 9 11 5 6 - - 0.0
26/02:20am 3.0 -0.7 2.3 95 0.3 WNW 11 11 6 6 - - 0.0
26/02:10am 3.1 -1.0 2.4 95 0.3 WNW 13 13 7 7 - - 0.0
26/02:00am 3.1 -0.6 2.5 96 0.2 WNW 11 13 6 7 - - 0.0
26/01:50am 3.1 -0.6 2.4 95 0.3 WNW 11 11 6 6 - - 0.0
26/01:40am 3.2 -0.5 2.4 94 0.3 WNW 11 11 6 6 - - 0.0
26/01:30am 3.3 -0.4 2.5 94 0.3 WNW 11 13 6 7 - - 0.0
26/01:20am 3.3 0.0 2.5 94 0.3 WNW 9 11 5 6 - - 0.0
26/01:10am 3.5 0.2 2.6 94 0.4 WNW 9 11 5 6 - - 0.0
26/01:00am 3.6 0.0 2.7 94 0.4 WNW 11 11 6 6 - - 0.0
26/12:50am 3.6 0.0 2.8 94 0.3 WNW 11 13 6 7 - - 0.0
26/12:40am 3.4 -0.3 2.6 94 0.3 WNW 11 13 6 7 - - 0.0
26/12:30am 3.4 -0.3 2.6 94 0.3 WNW 11 13 6 7 - - 0.0
26/12:20am 3.4 -0.3 2.6 94 0.3 WNW 11 13 6 7 - - 0.0
26/12:10am 3.6 -0.4 2.8 94 0.3 WNW 13 15 7 8 - - 0.0
26/12:00am 3.8 -0.5 3.0 94 0.3 WNW 15 17 8 9 - - 0.0
 
Date/Time
EST
Temp
°C
App
Temp
°C
Dew
Point
°C
Rel
Hum
%
Delta-T
°C
Wind Press
QNH
hPa
Press
MSL
hPa
Rain since
9am
mm
Dir  Spd
km/h
Gust
km/h
Spd
kts
Gust
kts
25/11:50pm 3.8 -0.9 3.1 95 0.3 WNW 17 19 9 10 - - 0.0
25/11:40pm 3.8 -0.9 3.0 94 0.3 WNW 17 19 9 10 - - 0.0
25/11:30pm 3.9 -0.8 3.1 94 0.3 WNW 17 19 9 10 - - 0.0
25/11:20pm 4.1 -1.0 3.2 94 0.4 WNW 19 20 10 11 - - 0.0
25/11:10pm 4.2 -0.8 3.4 94 0.3 WNW 19 20 10 11 - - 0.0
25/11:00pm 4.4 -0.2 3.5 94 0.4 WNW 17 20 9 11 - - 0.0
25/10:50pm 4.5 0.3 3.7 95 0.3 WNW 15 17 8 9 - - 0.0
25/10:40pm 4.5 0.3 3.7 95 0.3 WNW 15 17 8 9 - - 0.0
25/10:30pm 4.6 0.0 3.8 95 0.3 WNW 17 20 9 11 - - 0.0
25/10:20pm 4.8 -0.1 4.0 95 0.3 WNW 19 20 10 11 - - 0.0
25/10:10pm 4.8 -0.1 4.0 95 0.3 WNW 19 20 10 11 - - 0.0
25/10:00pm 4.8 -0.1 4.0 95 0.3 WNW 19 20 10 11 - - 0.0
25/09:50pm 5.0 0.1 4.1 94 0.4 WNW 19 19 10 10 - - 0.0
25/09:40pm 5.2 0.3 4.2 93 0.4 WNW 19 22 10 12 - - 0.0
25/09:30pm 5.4 0.6 4.4 93 0.4 WNW 19 20 10 11 - - 0.0
25/09:20pm 5.7 0.9 4.6 93 0.5 WNW 19 20 10 11 - - 0.0
25/09:10pm 5.8 0.8 4.6 92 0.5 W 20 24 11 13 - - 0.0
25/09:00pm 5.9 0.9 4.6 91 0.6 W 20 24 11 13 - - 0.0
25/08:50pm 5.9 0.1 4.6 91 0.6 WNW 24 26 13 14 - - 0.0
25/08:40pm 5.9 -0.2 4.6 91 0.6 WNW 26 28 14 15 - - 0.0
25/08:30pm 5.8 -0.3 4.7 93 0.5 WNW 26 28 14 15 - - 0.0
25/08:20pm 5.6 -0.2 4.6 93 0.4 WNW 24 28 13 15 - - 0.0
25/08:10pm 5.0 0.1 4.3 95 0.3 WNW 19 20 10 11 - - 0.0
25/08:00pm 4.7 1.3 3.9 95 0.3 WNW 11 13 6 7 - - 0.0
25/07:50pm 4.6 1.2 3.8 95 0.3 NW 11 13 6 7 - - 0.0
25/07:40pm 4.7 0.9 3.8 94 0.4 NW 13 13 7 7 - - 0.0
25/07:30pm 5.0 1.2 4.0 93 0.4 NW 13 15 7 8 - - 0.0
25/07:20pm 5.1 1.0 4.1 93 0.4 NW 15 17 8 9 - - 0.0
25/07:10pm 5.2 1.1 4.1 93 0.5 NW 15 17 8 9 - - 0.0
25/07:00pm 5.1 0.9 4.0 93 0.5 NW 15 17 8 9 - - 0.0
25/06:50pm 5.0 0.4 3.8 92 0.5 WNW 17 19 9 10 - - 0.0
25/06:40pm 5.4 0.8 3.8 89 0.7 WNW 17 19 9 10 - - 0.0
25/06:30pm 5.7 0.6 4.0 89 0.7 WNW 20 24 11 13 - - 0.0
25/06:20pm 5.8 0.7 4.3 90 0.6 WNW 20 30 11 16 - - 0.0
25/06:10pm 5.6 1.1 4.4 92 0.5 WNW 17 20 9 11 - - 0.0
25/06:00pm 5.6 0.7 4.1 90 0.6 W 19 22 10 12 - - 0.0
25/05:50pm 5.8 0.2 3.4 84 1.0 WNW 22 26 12 14 - - 0.0
25/05:40pm 6.2 -0.5 3.6 83 1.1 WNW 28 32 15 17 - - 0.0
25/05:30pm 6.4 -0.7 3.8 83 1.1 W 30 37 16 20 - - 0.0
25/05:20pm 6.1 2.1 4.7 91 0.6 WNW 15 17 8 9 - - 0.0
25/05:10pm 6.1 1.7 4.5 89 0.7 WNW 17 19 9 10 - - 0.0
25/05:00pm 6.3 1.9 4.5 88 0.8 WNW 17 19 9 10 - - 0.0
25/04:50pm 5.9 1.8 4.2 89 0.7 W 15 17 8 9 - - 0.0

Other formats

Comma delimited format used in spreadsheet applications
http://www.bom.gov.au/fwo/IDN60801/IDN60801.99792.axf

JavaScript Object Notation format (JSON) in row-major order
http://www.bom.gov.au/fwo/IDN60801/IDN60801.99792.json

Data quality

Most of these data are generated automatically and are frequently updated. Quality checks on data are not normally performed. It is possible for incorrect values to appear. Refer to information at About Latest Weather Observations and please check the disclaimer before using these data.